ADDS METAR Data INFO
IDs: Format: Raw Decoded Include TAF

Data at: 0346 UTC 20 Feb 2018

KYIP 200326Z 23008KT 1 3/4SM BR CLR 10/09 A2996 RMK AO2 VIS 3/4V4 RAE02 P0000 T01000094
KYIP 200253Z 22012KT 10SM -RA FEW065 BKN095 OVC110 12/11 A2995 RMK AO2 PK WND 21030/0211 SLP144 P0003 60007 T01170106 50006
KYIP 200153Z 22017KT 7SM -RA OVC090 12/11 A2996 RMK AO2 PK WND 22028/0143 RAB0054 SLP146 P0004 T01170106
KYIP 200136Z 22017G24KT 5SM -RA BR OVC090 12/11 A2996 RMK AO2 RAB0054 P0002 T01170106
KYIP 200127Z 22012KT 2SM -RA BR FEW065 OVC090 11/10 A2996 RMK AO2 RAB0054 P0001 T01110100
KYIP 200120Z 22010KT 3/4SM R05R/P6000FT -RA BR SCT065 SCT080 OVC095 11/10 A2996 RMK AO2 RAB0054 P0000 T01060100
KYIP 200107Z 23008KT 1 3/4SM -RA BR SCT025 BKN065 OVC080 11/10 A2996 RMK AO2 VIS 1/2V5 RAB0054 P0000 T01060100
KYIP 200100Z 21010KT 3SM -RA BR SCT025 OVC060 11/10 A2995 RMK AO2 RAB0054 P0000 T01060100
KYIP 200053Z 21009KT 3SM BR BKN025 OVC060 11/10 A2995 RMK AO2 SLP144 T01060100
KYIP 192353Z 21016KT 3SM BR OVC050 12/11 A2994 RMK AO2 RAB02E49 SLP139 P0009 60039 T01170106 10117 20028 53015
KYIP 192345Z 20015KT 3SM -RA BR BKN050 OVC070 12/11 A2993 RMK AO2 RAB02 P0009 T01170106
KYIP 192329Z 21016KT 1SM R05R/3500VP6000FT RA BR SCT005 BKN048 OVC070 12/11 A2993 RMK AO2 RAB02 P0008 T01170106
KYIP 192305Z 21015KT 1SM R05R/4500VP6000FT -RA MIFG BKN006 OVC020 12/11 A2993 RMK AO2 RAB02 P0000 T01170106
KYIP 192253Z COR 22015KT 1SM R05R/P6000FT MIFG OVC007 11/10 A2992 RMK AO2 RAE05 CIG 005V010 SLP134 P0000 T01110100
KYIP 192240Z 21014KT 1SM R05R/P6000FT BR BKN007 OVC013 11/10 A2991 RMK AO2 RAE05 CIG 006V010 P0000 T01110100
KYIP 192215Z 21012KT 1SM R05R/4500VP6000FT BR SCT008 OVC013 11/10 A2990 RMK AO2 RAE05 P0000 T01060100
KYIP 192200Z 21012KT 1SM R05R/5000VP6000FT -RA BR BKN008 OVC017 11/09 A2990 RMK AO2 P0000 T01060094
KYIP 192153Z 21012KT 1/4SM R05R/4500VP6000FT -RA FG OVC008 11/09 A2990 RMK AO2 RAE09B21 SLP127 P0001 T01060094
KYIP 192118Z 21011KT 1/4SM R05R/3500VP6000FT FG OVC005 10/09 A2989 RMK AO2 RAE09 P0000 T01000089
KYIP 192110Z 22010KT M1/4SM R05R/1800VP6000FT FG VV004 09/08 A2989 RMK AO2 RAE09 P0000 T00890078
KYIP 192102Z 20007KT M1/4SM R05R/1200V2200FT -RA FG VV004 08/07 A2989 RMK AO2 P0000 T00780072
KYIP 192053Z 18005KT 1/4SM R05R/1400V2400FT -RA FG VV003 08/07 A2989 RMK AO2 SLP124 P0004 60029 T00780067 56014
KYIP 191953Z 00000KT 1/4SM R05R/1400V1800FT RA FG VV003 05/03 A2991 RMK AO2 SLP133 P0012 T00500033
KYIP 191939Z 00000KT 1/4SM R05R/1400V1800FT -RA FG VV004 04/04 A2991 RMK AO2 P0009 T00440044
KYIP 191928Z 12004KT 1/4SM R05R/1800V2400FT RA FG VV004 05/04 A2991 RMK AO2 P0008 T00500044
KYIP 191853Z 06006KT 1/4SM R05R/1200V1400FT -RA FG VV004 03/02 A2993 RMK AO2 SLP140 P0013 T00330022
KYIP 191837Z 07003KT 1/4SM R05R/1200V1600FT -RA FG VV004 04/03 A2995 RMK AO2 P0011 T00390028
KYIP 191824Z 06005KT 1/4SM R05R/1400V2400FT RA FG VV004 03/02 A2996 RMK AO2 P0009 T00330022
KYIP 191753Z 02004KT 1/4SM R05R/1200V1600FT RA FG VV005 04/03 A2998 RMK AO2 SLP156 P0008 60010 T00390028 10039 20017 58008
KYIP 191750Z 03004KT 1/4SM R05R/1200V1600FT RA FG VV005 04/03 A2998 RMK AO2 P0008
KYIP 191653Z 00000KT 1/4SM R05R/1200V1400FT RA FG VV003 03/02 A3000 RMK AO2 RAE02B37UPB05E20 SLP164 P0002 T00330022
KYIP 191610Z 00000KT 1/4SM R05R/1600V2000FT UP FG VV003 03/02 A3001 RMK AO2 RAE02UPB05 P0000 T00280017
KYIP 191553Z 00000KT 1/4SM R05R/2200V4000FT -RA FG OVC002 03/01 A3000 RMK AO2 UPB46E51RAB51 SLP164 P0000 T00280011
KYIP 191550Z 00000KT 1/4SM R05R/2800V4000FT UP FG OVC002 03/01 A3001 RMK AO2 UPB46 P0000
KYIP 191534Z 00000KT 3/4SM R05R/6000VP6000FT BR OVC003 03/01 A3000 RMK AO2 T00280011
KYIP 191453Z 00000KT 1 1/4SM BR OVC003 02/01 A2999 RMK AO2 UPE1356 SLP158 P0000 60000 T00220011 58001
KYIP 191423Z 15003KT 1SM R05R/P6000FT BR OVC004 02/01 A2999 RMK AO2 UPE1356 P0000 T00220011
KYIP 191414Z 14003KT 3/4SM R05R/6000VP6000FT BR OVC004 02/01 A3000 RMK AO2 UPE1356 P0000 T00170006
KYIP 191353Z 14003KT 1/2SM R05R/3500V4000FT UP FG OVC005 02/01 A3001 RMK AO2 UPB47 SLP165 P0000 T00170006
KYIP 191315Z 15004KT 3/4SM R05R/4000V5000FT BR OVC006 02/01 A3001 RMK AO2 T00170006
KYIP 191253Z 15004KT 1SM R05R/5000VP6000FT BR BKN006 OVC010 02/00 A2999 RMK AO2 CIG 005V009 SLP160 T00170000
KYIP 191250Z 15005KT 1 1/4SM R05R/5500VP6000FT BR OVC008 02/00 A2999 RMK AO2 CIG 006V010
KYIP 191242Z 16005KT 2SM BR BKN008 OVC013 02/00 A3000 RMK AO2 CIG 007V011 T00170000
KYIP 191230Z 14004KT 7SM BKN011 OVC018 02/M01 A2999 RMK AO2 T00171006
KYIP 191153Z 17005KT 8SM BKN024 OVC029 02/M01 A2998 RMK AO2 RAE29 SLP157 P0002 60002 70002 T00171006 10017 21006 58009
KYIP 191144Z 15006KT 9SM BKN022 BKN060 OVC100 02/M01 A2997 RMK AO2 RAE29 P0002 T00171006
KYIP 191053Z 16007KT 10SM -RA FEW032 OVC090 02/M01 A3002 RMK AO2 RAB12 SLP168 P0000 T00171011
KYIP 190953Z 15005KT 10SM OVC041 02/M02 A3002 RMK AO2 SLP170 T00171017
KYIP 190853Z 00000KT 10SM BKN037 01/M02 A3001 RMK AO2 SLP167 T00111017 56020
KYIP 190753Z 14006KT 10SM BKN065 01/M03 A3002 RMK AO2 SLP169 T00061028
KYIP 190653Z 15006KT 10SM CLR 00/M03 A3005 RMK AO2 SLP181 T00001028
KYIP 190553Z 17009KT 10SM CLR 01/M03 A3007 RMK AO2 SLP186 T00111028 10017 21011 56027
KYIP 190453Z 16013KT 10SM CLR 01/M03 A3007 RMK AO2 SLP188 T00111028 400221033
KYIP 190353Z 14008KT 8SM CLR 00/M03 A3012 RMK AO2 SLP203 T00001033
KYIP 190253Z 14009KT 7SM CLR 01/M03 A3015 RMK AO2 SLP215 T00061028 56028
KYIP 190153Z 14008KT 7SM CLR 01/M03 A3017 RMK AO2 SLP221 T00061028
KYIP 190053Z 12006KT 7SM CLR 00/M04 A3019 RMK AO2 SLP230 T00001039
KYIP 182353Z 15005KT 8SM CLR 01/M03 A3024 RMK AO2 SLP244 T00061033 10017 20006 55019
KYIP 182253Z 14006KT 7SM CLR 01/M03 A3023 RMK AO2 SLP243 T00111033
KYIP 182153Z 17008KT 8SM CLR 01/M03 A3025 RMK AO2 SLP248 T00111033
KYIP 182053Z 22013KT 8SM SCT017 01/M04 A3030 RMK AO2 SLP264 T00061039 58003
KYIP 181953Z 23011KT 9SM OVC020 01/M03 A3031 RMK AO2 SLP268 T00111033
KYIP 181913Z 23013KT 10SM BKN022 01/M04 A3031 RMK AO2 T00111039
KYIP 181853Z 23014KT 10SM CLR 01/M04 A3031 RMK AO2 SLP268 T00111039
KYIP 181753Z 23013KT 10SM FEW026 02/M04 A3031 RMK AO2 SLP268 T00171039 10022 21017 55010
KYIP 181653Z 20009KT 10SM CLR 02/M04 A3030 RMK AO2 SLP267 T00171044
KYIP 181553Z 19007KT 10SM CLR 01/M04 A3032 RMK AO2 SLP273 T00111044